createdAt,value
2022-10-16T13:33:36.527Z,8.30
2022-10-16T13:39:31.930Z,7.43
2022-10-16T13:42:28.559Z,7.12
2022-10-16T14:05:31.462Z,5.78
2022-10-16T14:08:30.135Z,7.85
2022-10-16T14:11:25.326Z,8.20
2022-10-16T14:40:31.843Z,8.45
2022-10-16T14:43:27.553Z,11.88
2022-10-16T14:46:41.491Z,8.75
2022-10-16T14:49:44.108Z,9.57
2022-10-16T14:52:31.923Z,9.27
2022-10-16T14:55:19.521Z,8.65
2022-10-16T14:58:06.559Z,9.35
2022-10-16T15:03:47.534Z,8.88
2022-10-16T15:06:37.758Z,8.93
2022-10-16T15:09:26.457Z,11.38
2022-10-16T15:12:16.493Z,7.93
2022-10-16T15:15:26.613Z,9.53
2022-10-16T15:18:21.602Z,10.07
2022-10-16T15:21:32.773Z,13.00
2022-10-16T15:24:22.030Z,10.52
2022-10-16T15:27:09.227Z,10.02
2022-10-16T15:29:57.459Z,10.70
2022-10-16T15:32:44.988Z,11.45
2022-10-16T15:35:45.539Z,13.98
2022-10-16T15:38:47.521Z,13.62
2022-10-16T15:41:35.095Z,12.68
2022-10-16T15:44:30.801Z,13.55
2022-10-16T15:47:19.928Z,11.48
2022-10-16T15:50:15.050Z,10.80
2022-10-16T15:53:12.550Z,10.87
2022-10-16T15:56:18.725Z,11.90
2022-10-16T15:59:17.355Z,14.93
2022-10-16T16:02:12.867Z,15.40
2022-10-16T16:05:07.586Z,17.97
2022-10-16T16:11:22.571Z,13.52
2022-10-16T16:14:17.500Z,14.23
2022-10-16T16:17:11.965Z,13.50
2022-10-16T16:26:10.859Z,19.75
2022-10-16T16:29:03.731Z,18.05
2022-10-16T16:32:01.575Z,17.05
2022-10-16T16:34:53.526Z,19.60
2022-10-16T16:37:50.533Z,17.03
2022-10-16T16:40:41.500Z,17.20
2022-10-16T16:43:45.564Z,21.30
2022-10-16T16:46:47.545Z,28.02
2022-10-16T16:49:53.505Z,24.52
2022-10-16T16:52:53.980Z,37.40
2022-10-16T16:55:45.829Z,40.35
2022-10-16T16:58:37.563Z,46.15
2022-10-16T17:04:35.545Z,40.07
2022-10-16T17:10:30.505Z,40.17
2022-10-16T17:13:17.801Z,32.47
2022-10-16T17:16:19.788Z,32.17
2022-10-16T17:22:22.502Z,32.17
2022-10-16T17:25:16.567Z,31.15
2022-10-16T17:28:12.727Z,29.83
2022-10-16T17:31:14.551Z,28.98
2022-10-16T17:34:18.476Z,29.67
2022-10-16T17:37:06.993Z,31.77
2022-10-16T17:40:25.454Z,29.87
2022-10-16T17:43:11.971Z,29.67
2022-10-16T17:46:06.935Z,33.33
2022-10-16T17:49:06.762Z,32.45
2022-10-16T17:51:57.793Z,31.90
2022-10-16T17:55:01.729Z,35.15
2022-10-16T17:57:53.496Z,41.58
2022-10-16T18:00:42.963Z,45.38
2022-10-16T18:03:32.819Z,47.00
2022-10-16T18:06:27.246Z,46.30
2022-10-16T18:09:42.604Z,44.17
2022-10-16T18:12:53.567Z,49.60
2022-10-16T18:16:04.816Z,63.80
2022-10-16T18:18:59.614Z,101.57
2022-10-16T18:21:53.518Z,105.60
2022-10-16T18:24:48.783Z,92.65
2022-10-16T18:33:35.635Z,83.60
2022-10-16T18:36:30.849Z,75.43
2022-10-16T18:39:22.542Z,68.00
2022-10-16T18:42:21.542Z,64.18
2022-10-16T18:45:15.909Z,64.57
2022-10-16T18:48:04.251Z,63.00
2022-10-16T18:50:55.515Z,62.17
2022-10-16T18:53:47.710Z,54.43
2022-10-16T18:56:47.749Z,48.53
2022-10-16T18:59:35.337Z,45.15
2022-10-16T19:02:25.856Z,51.58
2022-10-16T19:05:20.097Z,54.03
2022-10-16T19:08:16.648Z,60.25
2022-10-16T19:11:14.174Z,59.07
2022-10-16T19:14:11.530Z,64.28
2022-10-16T19:17:08.597Z,63.67
2022-10-16T19:20:03.513Z,67.73
2022-10-16T19:23:00.603Z,65.50
2022-10-16T19:34:51.559Z,62.42
2022-10-16T19:37:44.881Z,60.08
2022-10-16T19:40:38.901Z,55.67
2022-10-16T19:43:50.329Z,47.80
2022-10-16T19:46:45.404Z,46.78
2022-10-16T19:49:33.386Z,43.45
2022-10-16T19:52:27.686Z,50.58
2022-10-16T19:55:19.108Z,42.78
2022-10-16T20:01:15.686Z,39.78
2022-10-16T20:04:12.986Z,37.65
2022-10-16T20:07:07.590Z,28.35
2022-10-16T20:09:59.531Z,28.30
2022-10-16T20:12:46.476Z,29.15
2022-10-16T20:15:46.793Z,30.10
2022-10-16T20:18:41.238Z,27.70
2022-10-16T20:21:33.464Z,23.77
2022-10-16T20:24:24.094Z,25.12
2022-10-16T20:27:26.921Z,25.90
2022-10-16T20:30:14.700Z,22.95
2022-10-16T20:36:15.308Z,24.73
2022-10-16T20:39:09.717Z,24.07
2022-10-16T20:42:03.528Z,28.83
2022-10-16T20:44:51.395Z,39.22
2022-10-16T20:47:42.568Z,39.67
2022-10-16T20:50:31.511Z,43.05
2022-10-16T20:53:18.397Z,45.53
2022-10-16T20:56:11.533Z,42.27
2022-10-16T20:59:00.553Z,43.35
2022-10-16T21:01:54.244Z,38.30
2022-10-16T21:04:44.659Z,35.37
2022-10-16T21:10:36.506Z,34.38
2022-10-16T21:13:28.208Z,33.85
2022-10-16T21:16:18.613Z,27.25
2022-10-16T21:19:06.291Z,25.87
2022-10-16T21:21:52.325Z,25.57
2022-10-16T21:24:40.035Z,31.23
2022-10-16T21:27:27.737Z,31.80
2022-10-16T21:30:16.004Z,31.50
2022-10-16T21:33:05.925Z,29.58
2022-10-16T21:35:52.694Z,27.70
2022-10-16T21:38:38.778Z,30.85
2022-10-16T21:41:27.410Z,32.53
2022-10-16T21:44:13.953Z,33.50
2022-10-16T21:47:00.633Z,31.12
2022-10-16T21:49:48.775Z,33.25
2022-10-16T21:52:35.283Z,30.15
2022-10-16T21:55:23.994Z,28.05
2022-10-16T21:58:10.315Z,27.23
2022-10-16T22:00:56.877Z,27.77
2022-10-16T22:03:45.174Z,27.15
2022-10-16T22:06:31.956Z,31.08
2022-10-16T22:09:18.370Z,31.45
2022-10-16T22:12:04.951Z,30.42
2022-10-16T22:14:51.249Z,31.45
2022-10-16T22:17:37.663Z,29.77
2022-10-16T22:20:25.530Z,30.37
2022-10-16T22:23:13.411Z,28.10
2022-10-16T22:26:04.039Z,26.62
2022-10-16T22:28:50.553Z,27.65
2022-10-16T22:31:37.101Z,27.58
2022-10-16T22:34:23.532Z,28.67
2022-10-16T22:37:09.858Z,29.65
2022-10-16T22:40:00.945Z,28.25
2022-10-16T22:45:39.127Z,29.33
2022-10-16T22:48:25.661Z,30.50
2022-10-16T22:51:16.775Z,31.48
2022-10-16T22:54:04.215Z,31.65
2022-10-16T22:56:50.117Z,29.67
2022-10-16T22:59:37.082Z,26.40
2022-10-16T23:02:23.606Z,23.92
2022-10-16T23:05:11.895Z,22.05
2022-10-16T23:07:58.027Z,20.02
2022-10-16T23:10:47.083Z,17.20
2022-10-16T23:13:36.405Z,24.73
2022-10-16T23:16:23.733Z,21.42
2022-10-16T23:22:03.744Z,24.87
2022-10-16T23:24:50.070Z,22.90
2022-10-16T23:27:36.423Z,24.50
2022-10-16T23:30:23.959Z,25.40
2022-10-16T23:33:10.654Z,23.20
2022-10-16T23:35:56.536Z,24.27
2022-10-16T23:38:44.613Z,28.20
2022-10-16T23:41:30.516Z,25.50
2022-10-16T23:44:17.532Z,23.30
2022-10-16T23:47:03.972Z,20.97
2022-10-16T23:49:50.436Z,20.60
2022-10-16T23:52:37.459Z,19.80
2022-10-16T23:55:24.355Z,20.23
2022-10-16T23:58:10.854Z,19.83
